Time;durP1;ratioP1;P1;durP2;ratioP2;P2;SDS_P1;SDS_P2;PMS_P1;PMS_P2;Temp;Humidity;BMP_temperature;BMP_pressure;BME280_temperature;BME280_humidity;BME280_pressure;Samples;Min_cycle;Max_cycle;Signal;HPM_P1;HPM_P2
2023/11/07 00:00:05;;;;;;;;;;;16.40;91.30;;;;;;6100533;23;19901;-72
2023/11/07 00:02:30;;;;;;;;;;;16.50;91.30;;;;;;6099230;23;20237;-72
2023/11/07 00:04:56;;;;;;;;;;;16.60;91.40;;;;;;6099471;23;19913;-72
2023/11/07 00:07:25;;;;;;;;;;;16.70;91.60;;;;;;6099732;23;19901;-73
2023/11/07 00:09:50;;;;;;;;;;;16.50;89.10;;;;;;6099627;23;19984;-72
2023/11/07 00:12:17;;;;;;;;;;;16.50;91.40;;;;;;6099529;23;19901;-72
2023/11/07 00:14:42;;;;;;;;;;;16.50;91.60;;;;;;6099596;23;19902;-72
2023/11/07 00:17:08;;;;;;;;;;;16.60;91.60;;;;;;6099515;23;19924;-72
2023/11/07 00:19:34;;;;;;;;;;;16.60;91.70;;;;;;6099453;23;19956;-72
2023/11/07 00:21:59;;;;;;;;;;;16.60;91.50;;;;;;6099450;23;19901;-72
2023/11/07 00:24:25;;;;;;;;;;;16.50;91.40;;;;;;6099636;23;20329;-72
2023/11/07 00:26:52;;;;;;;;;;;17.90;91.90;;;;;;6100652;23;19901;-72
2023/11/07 00:29:20;;;;;;;;;;;16.60;91.50;;;;;;6100051;23;19901;-72
2023/11/07 00:31:45;;;;;;;;;;;16.80;91.60;;;;;;6099668;23;19905;-72
2023/11/07 00:34:16;;;;;;;;;;;16.50;91.50;;;;;;6100005;23;19948;-72
2023/11/07 00:36:41;;;;;;;;;;;16.50;91.70;;;;;;6099810;23;19948;-72
2023/11/07 00:39:07;;;;;;;;;;;16.50;91.80;;;;;;6100148;23;19901;-72
2023/11/07 00:41:32;;;;;;;;;;;16.70;91.70;;;;;;6099402;23;19901;-72
2023/11/07 00:44:00;;;;;;;;;;;16.50;91.80;;;;;;6099412;23;19917;-72
2023/11/07 00:46:25;;;;;;;;;;;16.60;91.70;;;;;;6098286;23;19905;-72
2023/11/07 00:48:51;;;;;;;;;;;16.50;91.80;;;;;;6097837;23;19901;-72
2023/11/07 00:51:16;;;;;;;;;;;16.40;91.80;;;;;;6097835;23;19973;-72
2023/11/07 00:53:42;;;;;;;;;;;16.50;91.90;;;;;;6107483;23;19976;-72
2023/11/07 00:56:08;;;;;;;;;;;16.50;92.00;;;;;;6098275;23;19901;-72
2023/11/07 00:58:33;;;;;;;;;;;16.50;91.40;;;;;;6097768;23;19933;-72
2023/11/07 01:01:00;;;;;;;;;;;16.40;91.80;;;;;;6097729;23;19901;-72
2023/11/07 01:03:26;;;;;;;;;;;16.40;91.70;;;;;;6097360;23;20300;-73
2023/11/07 01:05:51;;;;;;;;;;;16.50;91.90;;;;;;6097535;23;20479;-72
2023/11/07 01:08:18;;;;;;;;;;;16.60;91.90;;;;;;6097823;23;20376;-79
2023/11/07 01:10:44;;;;;;;;;;;16.50;91.70;;;;;;6097782;23;20085;-79
2023/11/07 01:13:09;;;;;;;;;;;17.00;92.10;;;;;;6097743;23;20150;-80
2023/11/07 01:15:35;;;;;;;;;;;16.50;91.90;;;;;;6098043;23;19937;-80
2023/11/07 01:18:01;;;;;;;;;;;16.40;92.00;;;;;;6098416;23;19930;-80
2023/11/07 01:20:26;;;;;;;;;;;16.70;91.90;;;;;;6097678;23;20236;-79
2023/11/07 01:22:52;;;;;;;;;;;16.50;91.90;;;;;;6097610;23;19901;-80
2023/11/07 01:25:17;;;;;;;;;;;16.50;91.80;;;;;;6097808;23;19996;-80
2023/11/07 01:27:43;;;;;;;;;;;16.40;91.70;;;;;;6097730;23;19901;-79
2023/11/07 01:30:09;;;;;;;;;;;16.40;91.90;;;;;;6097530;23;20011;-80
2023/11/07 01:32:36;;;;;;;;;;;16.40;90.90;;;;;;6097540;23;19901;-79
2023/11/07 01:35:03;;;;;;;;;;;16.40;91.60;;;;;;6097640;23;19980;-80
2023/11/07 01:37:28;;;;;;;;;;;16.50;91.90;;;;;;6097926;23;19901;-80
2023/11/07 01:39:54;;;;;;;;;;;16.40;91.90;;;;;;6097565;23;19901;-80
2023/11/07 01:42:20;;;;;;;;;;;16.40;91.90;;;;;;6097957;23;19902;-79
2023/11/07 01:44:50;;;;;;;;;;;16.50;91.70;;;;;;6097401;23;20345;-80
2023/11/07 01:47:20;;;;;;;;;;;16.30;91.70;;;;;;6097416;23;19905;-80
2023/11/07 01:49:46;;;;;;;;;;;16.40;89.20;;;;;;6097412;23;19911;-80
2023/11/07 01:52:12;;;;;;;;;;;16.40;92.00;;;;;;6097896;23;19971;-79
2023/11/07 01:54:37;;;;;;;;;;;16.50;92.00;;;;;;6097417;23;19908;-79
2023/11/07 01:57:03;;;;;;;;;;;17.20;92.00;;;;;;6096950;23;19929;-79
2023/11/07 01:59:29;;;;;;;;;;;16.60;91.70;;;;;;6097276;23;20276;-80
2023/11/07 02:01:58;;;;;;;;;;;16.40;91.70;;;;;;6097076;23;19909;-80
2023/11/07 02:04:24;;;;;;;;;;;16.50;92.00;;;;;;6107042;23;20329;-79
2023/11/07 02:06:50;;;;;;;;;;;16.40;92.00;;;;;;6106850;23;19901;-80
2023/11/07 02:09:16;;;;;;;;;;;16.50;92.00;;;;;;6097220;23;19909;-80
2023/11/07 02:11:43;;;;;;;;;;;16.30;91.90;;;;;;6097578;23;19902;-79
2023/11/07 02:14:09;;;;;;;;;;;16.40;91.90;;;;;;6097053;23;19901;-80
2023/11/07 02:16:34;;;;;;;;;;;16.40;92.00;;;;;;6096939;23;20240;-80
2023/11/07 02:19:00;;;;;;;;;;;16.40;91.90;;;;;;6097317;23;20325;-80
2023/11/07 02:21:28;;;;;;;;;;;16.40;92.00;;;;;;6097320;23;19928;-80
2023/11/07 02:23:54;;;;;;;;;;;16.60;92.10;;;;;;6097427;23;19905;-79
2023/11/07 02:26:20;;;;;;;;;;;16.40;91.90;;;;;;6097476;23;19901;-80
2023/11/07 02:28:46;;;;;;;;;;;16.40;92.00;;;;;;6097189;23;20369;-79
2023/11/07 02:31:12;;;;;;;;;;;16.30;91.80;;;;;;6097306;23;19976;-80
2023/11/07 02:33:38;;;;;;;;;;;16.30;91.90;;;;;;6097200;23;19901;-80
2023/11/07 02:36:04;;;;;;;;;;;16.30;91.80;;;;;;6097519;23;19908;-79
2023/11/07 02:38:31;;;;;;;;;;;16.50;91.70;;;;;;6098087;23;19901;-80
2023/11/07 02:40:57;;;;;;;;;;;16.30;92.00;;;;;;6097062;23;19925;-80
2023/11/07 02:43:23;;;;;;;;;;;16.30;92.00;;;;;;6097447;23;19985;-79
2023/11/07 02:45:49;;;;;;;;;;;16.40;92.00;;;;;;6097360;23;19993;-79
2023/11/07 02:48:15;;;;;;;;;;;16.20;91.90;;;;;;6097058;23;20331;-79
2023/11/07 02:50:41;;;;;;;;;;;16.40;91.90;;;;;;6097451;23;19907;-79
2023/11/07 02:53:07;;;;;;;;;;;16.40;92.00;;;;;;6097366;23;19924;-80
2023/11/07 02:55:33;;;;;;;;;;;16.40;91.90;;;;;;6097284;23;19901;-79
2023/11/07 02:57:59;;;;;;;;;;;15.90;91.80;;;;;;6096971;23;20325;-79
2023/11/07 03:00:26;;;;;;;;;;;16.30;91.90;;;;;;6097337;23;19960;-80
2023/11/07 03:02:52;;;;;;;;;;;16.30;91.80;;;;;;6096703;23;19917;-79
2023/11/07 03:05:18;;;;;;;;;;;16.20;92.00;;;;;;6096751;23;20308;-80
2023/11/07 03:07:44;;;;;;;;;;;16.30;91.90;;;;;;6097694;23;19972;-72
2023/11/07 03:10:10;;;;;;;;;;;16.30;91.80;;;;;;6096736;23;19984;-72
2023/11/07 03:12:36;;;;;;;;;;;16.30;91.90;;;;;;6097030;23;19913;-72
2023/11/07 03:15:02;;;;;;;;;;;16.40;92.00;;;;;;6096990;23;19963;-72
2023/11/07 03:17:28;;;;;;;;;;;16.30;91.70;;;;;;6096767;23;19957;-72
2023/11/07 03:19:54;;;;;;;;;;;16.30;91.90;;;;;;6097146;23;19905;-80
2023/11/07 03:22:20;;;;;;;;;;;16.30;91.90;;;;;;6096541;23;19956;-80
2023/11/07 03:24:49;;;;;;;;;;;16.30;92.00;;;;;;6097058;23;19909;-80
2023/11/07 03:27:15;;;;;;;;;;;16.30;92.00;;;;;;6096971;23;19901;-80
2023/11/07 03:29:42;;;;;;;;;;;16.30;91.90;;;;;;6097129;23;19907;-80
2023/11/07 03:32:08;;;;;;;;;;;16.30;91.80;;;;;;6097078;23;19905;-80
2023/11/07 03:34:34;;;;;;;;;;;16.30;91.80;;;;;;6096875;23;19901;-80
2023/11/07 03:37:00;;;;;;;;;;;16.30;92.00;;;;;;6097839;23;19976;-80
2023/11/07 03:39:25;;;;;;;;;;;16.30;91.90;;;;;;6096472;23;20372;-80
2023/11/07 03:41:51;;;;;;;;;;;16.30;91.90;;;;;;6096772;23;19950;-80
2023/11/07 03:44:17;;;;;;;;;;;16.50;91.90;;;;;;6097139;23;19916;-80
2023/11/07 03:46:43;;;;;;;;;;;16.30;91.80;;;;;;6096563;23;20314;-80
2023/11/07 03:49:08;;;;;;;;;;;16.30;91.90;;;;;;6096489;23;19908;-80
2023/11/07 03:51:34;;;;;;;;;;;16.30;91.90;;;;;;6096690;23;19901;-79
2023/11/07 03:54:00;;;;;;;;;;;16.30;91.80;;;;;;6097115;23;19901;-79
2023/11/07 03:56:27;;;;;;;;;;;16.30;92.00;;;;;;6096646;23;19924;-80
2023/11/07 03:58:52;;;;;;;;;;;16.30;91.90;;;;;;6097141;23;19901;-79
2023/11/07 04:01:18;;;;;;;;;;;16.20;91.70;;;;;;6096572;23;20318;-80
2023/11/07 04:03:44;;;;;;;;;;;16.20;91.90;;;;;;6097111;23;19913;-80
2023/11/07 04:06:10;;;;;;;;;;;16.30;91.90;;;;;;6096555;23;20233;-80
2023/11/07 04:08:36;;;;;;;;;;;16.20;91.80;;;;;;6096514;23;19980;-79
2023/11/07 04:11:02;;;;;;;;;;;16.20;91.90;;;;;;6096798;23;19902;-79
2023/11/07 04:13:29;;;;;;;;;;;16.20;91.80;;;;;;6096817;23;19901;-80
2023/11/07 04:15:58;;;;;;;;;;;16.20;92.00;;;;;;6096950;23;19975;-80
2023/11/07 04:18:42;;;;;;;;;;;16.10;91.70;;;;;;6094293;23;19901;-80
2023/11/07 04:21:08;;;;;;;;;;;16.10;91.60;;;;;;6098011;23;19901;-80
2023/11/07 04:23:34;;;;;;;;;;;16.20;91.90;;;;;;6098315;23;19908;-80
2023/11/07 04:26:02;;;;;;;;;;;16.20;91.80;;;;;;6098827;23;19913;-79
2023/11/07 04:28:30;;;;;;;;;;;16.30;91.90;;;;;;6098542;23;19949;-79
2023/11/07 04:30:56;;;;;;;;;;;16.20;91.90;;;;;;6098465;23;20329;-80
2023/11/07 04:33:22;;;;;;;;;;;16.20;91.50;;;;;;6099179;23;19933;-80
2023/11/07 04:35:48;;;;;;;;;;;16.30;91.90;;;;;;6098380;23;19908;-80
2023/11/07 04:38:16;;;;;;;;;;;16.10;91.80;;;;;;6098628;23;19917;-80
2023/11/07 04:40:42;;;;;;;;;;;16.20;91.80;;;;;;6098132;23;19901;-80
2023/11/07 04:43:08;;;;;;;;;;;16.20;91.90;;;;;;6098588;23;19906;-80
2023/11/07 04:45:34;;;;;;;;;;;16.20;91.90;;;;;;6098483;23;20218;-80
2023/11/07 04:48:01;;;;;;;;;;;16.20;92.00;;;;;;6098550;23;20038;-80
2023/11/07 04:50:27;;;;;;;;;;;16.20;92.00;;;;;;6098497;23;19987;-80
2023/11/07 04:52:53;;;;;;;;;;;16.30;92.10;;;;;;6098171;23;19902;-80
2023/11/07 04:55:21;;;;;;;;;;;16.20;92.00;;;;;;6098078;23;19929;-80
2023/11/07 04:57:51;;;;;;;;;;;16.20;92.20;;;;;;6098212;23;19905;-80
2023/11/07 05:00:17;;;;;;;;;;;16.30;89.80;;;;;;6098090;23;19929;-80
2023/11/07 05:02:43;;;;;;;;;;;16.20;92.00;;;;;;6098590;23;19984;-79
2023/11/07 05:05:09;;;;;;;;;;;16.30;92.20;;;;;;6097957;23;20318;-80
2023/11/07 05:07:35;;;;;;;;;;;16.30;92.10;;;;;;6098384;23;19973;-79
2023/11/07 05:10:03;;;;;;;;;;;16.30;92.20;;;;;;6098492;23;19908;-80
2023/11/07 05:12:30;;;;;;;;;;;16.20;92.00;;;;;;6073110;23;19981;-79
2023/11/07 05:14:57;;;;;;;;;;;16.30;92.20;;;;;;6098365;23;19905;-79
2023/11/07 05:17:22;;;;;;;;;;;16.30;92.10;;;;;;6098289;23;20240;-79
2023/11/07 05:19:48;;;;;;;;;;;16.30;92.20;;;;;;6097865;23;19980;-79
2023/11/07 05:22:14;;;;;;;;;;;16.20;92.10;;;;;;6098195;23;19976;-79
2023/11/07 05:24:40;;;;;;;;;;;16.30;92.10;;;;;;6098044;23;20040;-79
2023/11/07 05:27:06;;;;;;;;;;;16.30;92.30;;;;;;6097681;23;20332;-78
2023/11/07 05:29:31;;;;;;;;;;;16.20;92.00;;;;;;6098188;23;19980;-78
2023/11/07 05:31:58;;;;;;;;;;;16.30;92.20;;;;;;6097494;23;20317;-79
2023/11/07 05:34:24;;;;;;;;;;;16.20;92.20;;;;;;6098147;23;19992;-79
2023/11/07 05:36:50;;;;;;;;;;;16.30;92.20;;;;;;6097900;23;20233;-79
2023/11/07 05:39:17;;;;;;;;;;;16.50;92.30;;;;;;6097543;23;20325;-79
2023/11/07 05:41:43;;;;;;;;;;;16.20;92.20;;;;;;6098139;23;19905;-79
2023/11/07 05:44:09;;;;;;;;;;;16.50;92.20;;;;;;6097574;23;20321;-79
2023/11/07 05:46:35;;;;;;;;;;;16.20;92.30;;;;;;6097530;23;19932;-79
2023/11/07 05:49:00;;;;;;;;;;;16.20;92.00;;;;;;6097973;23;19908;-79
2023/11/07 05:51:26;;;;;;;;;;;16.20;92.20;;;;;;6097857;23;19901;-79
2023/11/07 05:53:52;;;;;;;;;;;16.30;92.30;;;;;;6097883;23;19901;-79
2023/11/07 05:56:18;;;;;;;;;;;16.30;92.20;;;;;;6097472;23;19936;-79
2023/11/07 05:58:46;;;;;;;;;;;16.20;91.90;;;;;;6073090;23;19957;-79
2023/11/07 06:01:12;;;;;;;;;;;16.30;92.20;;;;;;6097687;23;19930;-79
2023/11/07 06:03:39;;;;;;;;;;;16.20;92.00;;;;;;6097180;23;19917;-79
2023/11/07 06:06:04;;;;;;;;;;;16.50;92.30;;;;;;6097660;23;19909;-79
2023/11/07 06:08:30;;;;;;;;;;;16.20;91.90;;;;;;6097227;23;20436;-79
2023/11/07 06:10:55;;;;;;;;;;;16.20;92.40;;;;;;6097315;23;19960;-79
2023/11/07 06:13:21;;;;;;;;;;;16.20;92.40;;;;;;6097387;23;19901;-79
2023/11/07 06:15:46;;;;;;;;;;;16.30;92.40;;;;;;6097013;23;19901;-79
2023/11/07 06:18:12;;;;;;;;;;;16.20;92.40;;;;;;6071938;23;20237;-80
2023/11/07 06:20:38;;;;;;;;;;;16.20;92.40;;;;;;6097191;23;19917;-79
2023/11/07 06:23:05;;;;;;;;;;;16.20;92.40;;;;;;6097536;23;19908;-79
2023/11/07 06:25:31;;;;;;;;;;;16.20;92.40;;;;;;6096965;23;19909;-78
2023/11/07 06:27:58;;;;;;;;;;;16.20;92.00;;;;;;6097822;23;19901;-78
2023/11/07 06:30:29;;;;;;;;;;;16.20;92.40;;;;;;6096940;23;19901;-79
2023/11/07 06:32:56;;;;;;;;;;;16.20;92.40;;;;;;6106973;23;19901;-77
2023/11/07 06:35:22;;;;;;;;;;;16.10;92.00;;;;;;6096786;23;19901;-81
2023/11/07 06:37:48;;;;;;;;;;;16.20;92.20;;;;;;6096886;23;19908;-79
2023/11/07 06:40:14;;;;;;;;;;;16.10;92.10;;;;;;6097028;23;20337;-79
2023/11/07 06:42:40;;;;;;;;;;;16.20;92.60;;;;;;6096953;23;19909;-81
2023/11/07 06:45:06;;;;;;;;;;;16.40;92.50;;;;;;6071185;23;19984;-80
2023/11/07 06:47:31;;;;;;;;;;;16.20;92.00;;;;;;6096892;23;20313;-84
2023/11/07 06:49:56;;;;;;;;;;;16.00;92.20;;;;;;6096842;23;20281;-82
2023/11/07 06:52:22;;;;;;;;;;;16.20;92.30;;;;;;6096786;23;19901;-78
2023/11/07 06:54:48;;;;;;;;;;;16.20;92.30;;;;;;6097973;23;19901;-80
2023/11/07 06:57:13;;;;;;;;;;;16.00;92.20;;;;;;6096728;23;19983;-80
2023/11/07 06:59:39;;;;;;;;;;;16.10;92.20;;;;;;6096866;23;19908;-79
2023/11/07 07:02:05;;;;;;;;;;;16.20;92.10;;;;;;6096921;23;19909;-81
2023/11/07 07:04:31;;;;;;;;;;;16.20;92.30;;;;;;6106567;23;19909;-79
2023/11/07 07:06:57;;;;;;;;;;;16.20;92.00;;;;;;6096872;23;19901;-79
2023/11/07 07:09:26;;;;;;;;;;;16.20;92.20;;;;;;6097341;23;19972;-78
2023/11/07 07:11:52;;;;;;;;;;;16.30;92.10;;;;;;6096747;23;19901;-79
2023/11/07 07:14:18;;;;;;;;;;;16.30;92.30;;;;;;6096731;23;19931;-76
2023/11/07 07:16:44;;;;;;;;;;;16.20;92.20;;;;;;6096639;23;19989;-77
2023/11/07 07:19:15;;;;;;;;;;;16.20;92.00;;;;;;6096590;23;19909;-80
2023/11/07 07:21:41;;;;;;;;;;;16.20;92.20;;;;;;6106364;23;19901;-80
2023/11/07 07:24:21;;;;;;;;;;;16.10;91.90;;;;;;6097789;23;19908;-78
2023/11/07 07:26:47;;;;;;;;;;;16.20;90.80;;;;;;6107040;23;19901;-78
2023/11/07 07:29:13;;;;;;;;;;;16.20;92.20;;;;;;6096827;23;19908;-76
2023/11/07 07:31:40;;;;;;;;;;;16.20;92.00;;;;;;6097078;23;19924;-76
2023/11/07 07:34:06;;;;;;;;;;;16.20;92.00;;;;;;6096582;23;19909;-77
2023/11/07 07:36:42;;;;;;;;;;;16.20;91.90;;;;;;6096868;23;19968;-71
2023/11/07 07:39:32;;;;;;;;;;;16.00;91.80;;;;;;6082757;23;19901;-83
2023/11/07 07:42:00;;;;;;;;;;;16.00;91.70;;;;;;6096873;23;19972;-71
2023/11/07 07:44:32;;;;;;;;;;;16.20;91.60;;;;;;6096585;23;19913;-72
2023/11/07 07:46:58;;;;;;;;;;;16.20;91.80;;;;;;6096693;23;20244;-71
2023/11/07 07:49:25;;;;;;;;;;;16.10;91.90;;;;;;6071471;23;19901;-72
2023/11/07 07:51:52;;;;;;;;;;;16.10;92.00;;;;;;6071331;23;19901;-72
2023/11/07 07:54:22;;;;;;;;;;;16.20;92.20;;;;;;6096846;23;19901;-70
2023/11/07 07:56:49;;;;;;;;;;;16.20;92.10;;;;;;6107868;23;19935;-77
2023/11/07 07:59:14;;;;;;;;;;;16.10;92.20;;;;;;6107903;23;19907;-80
2023/11/07 08:01:42;;;;;;;;;;;15.90;91.90;;;;;;6107787;23;20305;-78
2023/11/07 08:04:09;;;;;;;;;;;16.20;92.10;;;;;;6072816;23;19913;-77
2023/11/07 08:06:36;;;;;;;;;;;16.10;91.90;;;;;;6098207;23;20337;-76
2023/11/07 08:09:03;;;;;;;;;;;16.20;91.80;;;;;;6098576;23;19936;-79
2023/11/07 08:11:29;;;;;;;;;;;16.00;91.80;;;;;;6098619;23;19901;-76
2023/11/07 08:13:57;;;;;;;;;;;16.10;91.90;;;;;;6098570;23;19924;-71
2023/11/07 08:16:23;;;;;;;;;;;16.00;92.00;;;;;;6073349;23;19908;-74
2023/11/07 08:18:49;;;;;;;;;;;16.10;92.20;;;;;;6073112;23;19948;-77
2023/11/07 08:21:15;;;;;;;;;;;16.10;92.00;;;;;;6098713;23;19944;-77
2023/11/07 08:23:41;;;;;;;;;;;16.10;91.90;;;;;;6098322;23;20253;-76
2023/11/07 08:26:07;;;;;;;;;;;16.10;92.00;;;;;;6098161;23;19913;-77
2023/11/07 08:28:33;;;;;;;;;;;16.10;92.00;;;;;;6098667;23;19908;-75
2023/11/07 08:31:00;;;;;;;;;;;16.10;92.10;;;;;;6098787;23;19902;-77
2023/11/07 08:33:27;;;;;;;;;;;16.10;91.70;;;;;;6098459;23;20273;-77
2023/11/07 08:35:53;;;;;;;;;;;16.20;91.90;;;;;;6098416;23;19972;-77
2023/11/07 08:38:19;;;;;;;;;;;16.00;91.70;;;;;;6098731;23;19936;-77
2023/11/07 08:40:45;;;;;;;;;;;16.00;91.80;;;;;;6098248;23;20277;-75
2023/11/07 08:43:12;;;;;;;;;;;16.00;91.70;;;;;;6098275;23;19936;-73
2023/11/07 08:45:37;;;;;;;;;;;16.00;91.90;;;;;;6097764;23;19916;-75
2023/11/07 08:48:03;;;;;;;;;;;16.00;91.80;;;;;;6097975;23;19945;-72
2023/11/07 08:50:29;;;;;;;;;;;16.00;91.90;;;;;;6097876;23;19924;-72
2023/11/07 08:52:57;;;;;;;;;;;16.00;91.90;;;;;;6098589;23;19957;-74
2023/11/07 08:55:25;;;;;;;;;;;16.10;91.80;;;;;;6098747;23;19932;-74
2023/11/07 08:57:51;;;;;;;;;;;16.10;91.90;;;;;;6073644;23;19902;-74
2023/11/07 09:00:23;;;;;;;;;;;16.20;92.00;;;;;;6098225;23;19901;-74
2023/11/07 09:02:49;;;;;;;;;;;16.00;91.70;;;;;;6101031;23;19913;-73
2023/11/07 09:05:16;;;;;;;;;;;16.20;91.80;;;;;;6097869;23;19992;-75
2023/11/07 09:07:42;;;;;;;;;;;16.50;92.00;;;;;;6097262;23;19917;-75
2023/11/07 09:10:11;;;;;;;;;;;16.10;91.80;;;;;;6098141;23;19901;-75
2023/11/07 09:12:37;;;;;;;;;;;16.20;91.70;;;;;;6097504;23;19985;-75
2023/11/07 09:15:05;;;;;;;;;;;16.20;92.00;;;;;;6098501;23;19972;-71
2023/11/07 09:17:34;;;;;;;;;;;16.20;91.40;;;;;;6102858;23;19928;-72
2023/11/07 09:20:02;;;;;;;;;;;16.10;91.70;;;;;;6098671;23;19928;-74
2023/11/07 09:22:30;;;;;;;;;;;16.20;91.80;;;;;;6097701;23;19933;-73
2023/11/07 09:24:56;;;;;;;;;;;16.20;92.00;;;;;;6097576;23;19937;-71
2023/11/07 09:27:22;;;;;;;;;;;16.40;91.90;;;;;;6072675;23;19928;-72
2023/11/07 09:29:55;;;;;;;;;;;16.30;91.90;;;;;;6097601;23;19901;-71
2023/11/07 09:32:22;;;;;;;;;;;16.30;91.90;;;;;;6107005;23;19972;-72
2023/11/07 09:34:48;;;;;;;;;;;16.50;91.90;;;;;;6096998;23;19901;-71
2023/11/07 09:37:15;;;;;;;;;;;16.40;91.90;;;;;;6097602;23;19902;-72
2023/11/07 09:39:41;;;;;;;;;;;16.30;91.80;;;;;;6097664;23;20206;-72
2023/11/07 09:42:07;;;;;;;;;;;16.40;92.00;;;;;;6097327;23;19907;-74
2023/11/07 09:44:35;;;;;;;;;;;16.50;91.90;;;;;;6097517;23;19991;-73
2023/11/07 09:47:03;;;;;;;;;;;16.50;92.00;;;;;;6097336;23;19933;-73
2023/11/07 09:49:29;;;;;;;;;;;16.50;91.80;;;;;;6097631;23;19950;-73
2023/11/07 09:51:58;;;;;;;;;;;16.60;92.10;;;;;;6098232;23;20246;-72
2023/11/07 09:54:24;;;;;;;;;;;16.60;91.90;;;;;;6097599;23;19901;-72
2023/11/07 09:56:52;;;;;;;;;;;16.70;91.90;;;;;;6071631;23;20356;-73
2023/11/07 10:00:03;;;;;;;;;;;16.60;91.70;;;;;;6097756;23;20243;-72
2023/11/07 10:02:34;;;;;;;;;;;16.70;91.70;;;;;;5952799;24;19963;-72
2023/11/07 10:05:00;;;;;;;;;;;16.70;89.20;;;;;;5953004;24;19911;-72
2023/11/07 10:07:26;;;;;;;;;;;16.80;91.80;;;;;;6031690;23;19905;-73
2023/11/07 10:09:54;;;;;;;;;;;16.70;91.80;;;;;;6098580;23;19908;-73
2023/11/07 10:12:20;;;;;;;;;;;16.90;91.70;;;;;;6097889;23;19908;-72
2023/11/07 10:14:46;;;;;;;;;;;16.90;91.70;;;;;;6097651;23;19902;-72
2023/11/07 10:17:19;;;;;;;;;;;17.00;91.80;;;;;;6097564;23;19911;-71
2023/11/07 10:19:46;;;;;;;;;;;17.00;88.70;;;;;;6097695;23;20334;-71
2023/11/07 10:22:12;;;;;;;;;;;17.10;91.80;;;;;;6097345;23;19908;-72
2023/11/07 10:24:44;;;;;;;;;;;17.10;91.90;;;;;;6097037;23;19940;-72
2023/11/07 10:27:11;;;;;;;;;;;17.10;89.10;;;;;;6096824;23;19932;-72
2023/11/07 10:29:50;;;;;;;;;;;17.20;91.50;;;;;;6097214;23;19921;-71
2023/11/07 10:32:16;;;;;;;;;;;17.40;88.70;;;;;;6106594;23;19909;-72
2023/11/07 10:34:42;;;;;;;;;;;17.30;91.40;;;;;;6106093;23;19905;-71
2023/11/07 10:37:07;;;;;;;;;;;17.30;91.70;;;;;;6106171;23;20280;-73
2023/11/07 10:39:35;;;;;;;;;;;17.40;91.70;;;;;;6106040;23;20237;-72
2023/11/07 10:42:17;;;;;;;;;;;17.40;91.60;;;;;;6096679;23;19939;-72
2023/11/07 10:44:43;;;;;;;;;;;17.40;88.50;;;;;;6096610;23;19964;-72
2023/11/07 10:47:09;;;;;;;;;;;17.40;91.10;;;;;;6096864;23;19907;-72
2023/11/07 10:49:36;;;;;;;;;;;17.50;91.60;;;;;;6096243;23;19992;-73
2023/11/07 10:52:05;;;;;;;;;;;17.30;91.30;;;;;;6096827;23;19968;-73
2023/11/07 10:54:31;;;;;;;;;;;17.60;91.10;;;;;;6096754;23;20236;-72
2023/11/07 10:57:21;;;;;;;;;;;17.90;91.40;;;;;;6096611;23;19901;-73
2023/11/07 10:59:48;;;;;;;;;;;17.70;87.80;;;;;;6106299;23;19912;-72
2023/11/07 11:02:15;;;;;;;;;;;17.80;91.10;;;;;;6105632;23;19913;-72
2023/11/07 11:04:42;;;;;;;;;;;17.80;91.00;;;;;;6096073;23;19909;-72
2023/11/07 11:07:09;;;;;;;;;;;17.90;91.30;;;;;;6096721;23;19932;-73
2023/11/07 11:09:36;;;;;;;;;;;17.90;91.30;;;;;;6096255;23;19921;-74
2023/11/07 11:12:03;;;;;;;;;;;18.00;91.10;;;;;;6096610;23;19932;-77
2023/11/07 11:14:29;;;;;;;;;;;18.10;91.00;;;;;;6096646;23;20213;-76
2023/11/07 11:17:01;;;;;;;;;;;18.10;91.00;;;;;;6096879;23;19902;-76
2023/11/07 11:19:33;;;;;;;;;;;18.10;87.30;;;;;;6096427;23;20206;-78
2023/11/07 11:22:11;;;;;;;;;;;18.20;91.00;;;;;;6106266;23;19980;-76
2023/11/07 11:24:45;;;;;;;;;;;18.20;86.90;;;;;;6096347;23;19993;-78
2023/11/07 11:27:16;;;;;;;;;;;18.20;90.70;;;;;;6105951;23;19908;-77
2023/11/07 11:29:49;;;;;;;;;;;18.30;91.30;;;;;;6095861;23;19905;-77
2023/11/07 11:32:34;;;;;;;;;;;18.20;90.70;;;;;;6093604;23;19908;-76
2023/11/07 11:35:23;;;;;;;;;;;18.30;88.40;;;;;;6096123;23;19921;-75
2023/11/07 11:38:11;;;;;;;;;;;18.40;87.00;;;;;;6105664;23;19931;-76
2023/11/07 11:40:46;;;;;;;;;;;18.50;87.00;;;;;;6096191;23;19972;-72
2023/11/07 11:43:12;;;;;;;;;;;18.40;87.00;;;;;;6095938;23;19909;-72
2023/11/07 11:45:38;;;;;;;;;;;18.40;90.80;;;;;;6096377;23;19909;-72
2023/11/07 11:48:05;;;;;;;;;;;18.50;90.80;;;;;;6095957;23;19959;-72
2023/11/07 11:50:31;;;;;;;;;;;18.60;90.40;;;;;;6095259;23;19908;-72
2023/11/07 11:52:57;;;;;;;;;;;18.60;90.80;;;;;;6096405;23;19901;-72
2023/11/07 11:55:22;;;;;;;;;;;18.60;90.80;;;;;;6095674;23;19985;-73
2023/11/07 11:58:06;;;;;;;;;;;18.60;90.70;;;;;;6095677;23;19953;-72
2023/11/07 12:00:39;;;;;;;;;;;18.60;86.60;;;;;;6096323;23;19901;-72
2023/11/07 12:03:10;;;;;;;;;;;18.70;90.50;;;;;;6095652;23;20359;-72
2023/11/07 12:05:37;;;;;;;;;;;18.70;90.60;;;;;;6105236;23;20397;-72
2023/11/07 12:08:25;;;;;;;;;;;18.70;90.50;;;;;;6105229;23;19908;-72
2023/11/07 12:10:54;;;;;;;;;;;18.70;86.70;;;;;;6105043;23;19917;-73
2023/11/07 12:13:23;;;;;;;;;;;18.50;86.50;;;;;;6105152;23;19901;-73
2023/11/07 12:15:51;;;;;;;;;;;18.60;90.90;;;;;;6095459;23;19959;-73
2023/11/07 12:18:20;;;;;;;;;;;18.60;90.60;;;;;;6095324;23;20264;-73
2023/11/07 12:20:46;;;;;;;;;;;18.80;86.90;;;;;;6095489;23;19973;-73
2023/11/07 12:23:12;;;;;;;;;;;18.80;90.80;;;;;;6096052;23;19901;-73
2023/11/07 12:25:47;;;;;;;;;;;18.70;90.60;;;;;;6096026;23;19948;-73
2023/11/07 12:28:14;;;;;;;;;;;18.80;90.90;;;;;;6095432;23;19902;-73
2023/11/07 12:30:40;;;;;;;;;;;18.80;86.70;;;;;;6095439;23;19905;-73
2023/11/07 12:33:08;;;;;;;;;;;18.80;90.70;;;;;;6095515;23;20342;-73
2023/11/07 12:35:34;;;;;;;;;;;18.80;91.00;;;;;;6104986;23;19901;-72
2023/11/07 12:38:09;;;;;;;;;;;20.30;91.30;;;;;;6096092;23;19924;-73
2023/11/07 12:40:36;;;;;;;;;;;18.70;90.90;;;;;;6105306;23;19901;-73
2023/11/07 12:43:07;;;;;;;;;;;18.70;90.90;;;;;;6097636;23;19901;-73
2023/11/07 12:45:49;;;;;;;;;;;18.60;90.90;;;;;;6094418;23;19920;-73
2023/11/07 12:48:24;;;;;;;;;;;18.60;91.10;;;;;;6097913;23;19908;-73
2023/11/07 12:50:50;;;;;;;;;;;18.60;91.00;;;;;;6107298;23;20321;-73
2023/11/07 12:53:19;;;;;;;;;;;18.60;91.10;;;;;;6097500;23;19912;-73
2023/11/07 12:55:52;;;;;;;;;;;18.60;91.30;;;;;;6097904;23;19968;-73
2023/11/07 12:58:27;;;;;;;;;;;18.60;87.90;;;;;;6097696;23;19909;-73
2023/11/07 13:01:03;;;;;;;;;;;18.70;87.20;;;;;;6098411;23;20241;-73
2023/11/07 13:03:31;;;;;;;;;;;;;;;;;;6097787;23;19993;-73
2023/11/07 13:05:57;;;;;;;;;;;18.70;88.10;;;;;;6097095;23;20317;-73
2023/11/07 13:08:29;;;;;;;;;;;18.60;90.80;;;;;;6096976;23;19901;-74
2023/11/07 13:11:17;;;;;;;;;;;19.10;87.00;;;;;;6097371;23;19905;-73
2023/11/07 13:13:45;;;;;;;;;;;18.90;86.30;;;;;;6077488;23;19943;-73
2023/11/07 13:16:10;;;;;;;;;;;18.80;90.50;;;;;;6097347;23;20334;-72
2023/11/07 13:18:37;;;;;;;;;;;18.80;90.80;;;;;;6097044;23;19920;-73
2023/11/07 13:21:08;;;;;;;;;;;19.10;91.00;;;;;;6097083;23;19901;-74
2023/11/07 13:23:35;;;;;;;;;;;18.70;90.80;;;;;;6106930;23;19901;-72
2023/11/07 13:26:01;;;;;;;;;;;19.10;91.20;;;;;;6097127;23;19938;-72
2023/11/07 13:28:26;;;;;;;;;;;18.70;91.00;;;;;;6096683;23;20289;-73
2023/11/07 13:30:52;;;;;;;;;;;18.80;90.90;;;;;;6096494;23;19905;-73
2023/11/07 13:33:19;;;;;;;;;;;18.90;90.80;;;;;;6096780;23;19908;-73
2023/11/07 13:35:47;;;;;;;;;;;18.80;90.60;;;;;;6097342;23;20237;-73
2023/11/07 13:38:19;;;;;;;;;;;18.80;90.90;;;;;;6096863;23;20384;-73
2023/11/07 13:40:45;;;;;;;;;;;18.80;86.70;;;;;;6071924;23;19944;-73
2023/11/07 13:43:12;;;;;;;;;;;18.70;90.80;;;;;;6096768;23;20372;-73
2023/11/07 13:45:38;;;;;;;;;;;18.70;91.00;;;;;;6096853;23;19939;-73
2023/11/07 13:48:05;;;;;;;;;;;18.60;90.90;;;;;;6097157;23;19924;-73
2023/11/07 13:50:31;;;;;;;;;;;18.60;90.80;;;;;;6097077;23;20213;-73
2023/11/07 13:52:58;;;;;;;;;;;18.50;91.00;;;;;;6096191;23;19976;-74
2023/11/07 13:55:25;;;;;;;;;;;18.50;91.00;;;;;;6096623;23;20475;-73
2023/11/07 13:57:52;;;;;;;;;;;18.40;91.20;;;;;;6096465;23;19901;-73
2023/11/07 14:00:18;;;;;;;;;;;18.30;91.20;;;;;;6097027;23;19901;-73
2023/11/07 14:02:44;;;;;;;;;;;18.30;91.30;;;;;;6096326;23;20356;-73
2023/11/07 14:05:11;;;;;;;;;;;18.30;91.70;;;;;;6096894;23;20289;-73
2023/11/07 14:07:37;;;;;;;;;;;18.40;91.40;;;;;;6096627;23;19901;-73
2023/11/07 14:10:10;;;;;;;;;;;18.20;91.50;;;;;;6097130;23;20227;-73
2023/11/07 14:12:54;;;;;;;;;;;18.30;90.80;;;;;;6092880;23;19980;-74
2023/11/07 14:15:35;;;;;;;;;;;18.20;91.40;;;;;;6093277;23;20308;-73
2023/11/07 14:18:04;;;;;;;;;;;18.30;91.40;;;;;;6096626;23;19901;-73
2023/11/07 14:20:31;;;;;;;;;;;18.00;91.20;;;;;;6096545;23;19984;-73